Time;durP1;ratioP1;P1;durP2;ratioP2;P2;SDS_P1;SDS_P2;PMS_P1;PMS_P2;Temp;Humidity;BMP_temperature;BMP_pressure;BME280_temperature;BME280_humidity;BME280_pressure;Samples;Min_cycle;Max_cycle;Signal;HPM_P1;HPM_P2
2024/01/10 00:00:46;;;;;;;14.63;14.13;;;-5.40;99.90;;;;;;5022986;28;20892;-71
2024/01/10 00:03:13;;;;;;;15.33;14.83;;;-5.40;99.90;;;;;;5020068;28;20550;-71
2024/01/10 00:05:40;;;;;;;15.07;14.57;;;-5.40;99.90;;;;;;5015483;28;20517;-72
2024/01/10 00:08:07;;;;;;;14.43;13.93;;;-5.40;99.90;;;;;;5018623;28;20830;-70
2024/01/10 00:10:34;;;;;;;14.10;13.70;;;-5.40;99.90;;;;;;5030520;28;20506;-71
2024/01/10 00:13:01;;;;;;;14.90;14.40;;;-5.40;99.90;;;;;;5028788;28;20492;-69
2024/01/10 00:15:30;;;;;;;14.87;14.37;;;-5.40;99.90;;;;;;5021529;28;20465;-72
2024/01/10 00:17:57;;;;;;;14.53;14.03;;;-5.40;99.90;;;;;;5025041;28;20449;-71
2024/01/10 00:20:25;;;;;;;14.63;14.13;;;-5.50;99.90;;;;;;5025774;28;21078;-72
2024/01/10 00:22:52;;;;;;;14.57;14.07;;;-5.50;99.90;;;;;;5011966;28;20458;-74
2024/01/10 00:25:18;;;;;;;14.73;14.23;;;-5.50;99.90;;;;;;5022652;28;20477;-71
2024/01/10 00:27:45;;;;;;;15.03;14.53;;;-5.50;99.90;;;;;;5024924;28;20885;-71
2024/01/10 00:30:12;;;;;;;14.47;13.97;;;-5.50;99.90;;;;;;5029624;28;20468;-72
2024/01/10 00:32:41;;;;;;;14.30;13.80;;;-5.60;99.90;;;;;;5034083;28;20465;-71
2024/01/10 00:35:08;;;;;;;14.97;14.47;;;-5.60;99.90;;;;;;5030519;28;20946;-72
2024/01/10 00:37:35;;;;;;;14.33;13.83;;;-5.70;99.90;;;;;;5013532;28;20507;-72
2024/01/10 00:40:03;;;;;;;15.23;14.73;;;-5.70;99.90;;;;;;5022099;28;20462;-72
2024/01/10 00:42:30;;;;;;;15.30;14.80;;;-5.80;99.90;;;;;;5032556;28;20457;-69
2024/01/10 00:44:57;;;;;;;14.87;14.37;;;-5.80;99.90;;;;;;5025815;28;20477;-72
2024/01/10 00:47:24;;;;;;;15.40;14.90;;;-5.80;99.90;;;;;;5033972;28;20457;-72
2024/01/10 00:49:53;;;;;;;15.13;14.63;;;-5.80;99.90;;;;;;5021951;28;20465;-71
2024/01/10 00:52:21;;;;;;;15.00;14.50;;;-5.80;99.90;;;;;;5030616;28;20460;-70
2024/01/10 00:54:48;;;;;;;15.00;14.50;;;-5.80;99.90;;;;;;5022671;28;20473;-69
2024/01/10 00:57:15;;;;;;;14.47;13.97;;;-5.80;99.90;;;;;;5026445;28;20456;-71
2024/01/10 00:59:42;;;;;;;14.50;14.00;;;-5.90;99.90;;;;;;5027441;28;20464;-69
2024/01/10 01:02:11;;;;;;;14.80;14.30;;;-5.90;99.90;;;;;;5027312;28;20476;-70
2024/01/10 01:04:38;;;;;;;14.63;14.13;;;-5.80;99.90;;;;;;5014264;28;20524;-72
2024/01/10 01:07:06;;;;;;;14.93;14.43;;;-5.80;99.90;;;;;;5032061;28;20479;-72
2024/01/10 01:09:34;;;;;;;14.87;14.37;;;-5.80;99.90;;;;;;5026848;28;20464;-72
2024/01/10 01:12:01;;;;;;;14.50;14.00;;;-5.80;99.90;;;;;;5015010;28;20989;-70
2024/01/10 01:14:28;;;;;;;15.03;14.53;;;-5.80;99.90;;;;;;5037245;28;20534;-70
2024/01/10 01:16:55;;;;;;;14.53;14.03;;;-5.90;99.90;;;;;;5018831;28;20964;-71
2024/01/10 01:19:22;;;;;;;14.87;14.37;;;-5.90;99.90;;;;;;5014748;28;20461;-71
2024/01/10 01:21:49;;;;;;;14.53;14.03;;;-5.90;99.90;;;;;;5028999;28;20469;-70
2024/01/10 01:24:17;;;;;;;14.70;14.20;;;-5.90;99.90;;;;;;5026156;28;20869;-71
2024/01/10 01:26:44;;;;;;;14.47;13.97;;;-5.80;99.90;;;;;;5021395;28;20497;-69
2024/01/10 01:29:11;;;;;;;14.87;14.37;;;-5.80;99.90;;;;;;5028622;28;20459;-72
2024/01/10 01:31:39;;;;;;;15.07;14.57;;;-5.80;99.90;;;;;;5019817;28;20987;-70
2024/01/10 01:34:06;;;;;;;14.67;14.17;;;-5.90;99.90;;;;;;5035226;28;20579;-72
2024/01/10 01:36:35;;;;;;;14.27;13.77;;;-5.80;99.90;;;;;;5031811;28;20473;-71
2024/01/10 01:39:04;;;;;;;14.70;14.20;;;-5.80;99.90;;;;;;5022617;28;20556;-71
2024/01/10 01:41:33;;;;;;;14.77;14.27;;;-5.90;99.90;;;;;;5013107;28;20474;-69
2024/01/10 01:43:59;;;;;;;14.90;14.40;;;-5.90;99.90;;;;;;5015887;28;20856;-71
2024/01/10 01:46:27;;;;;;;14.63;14.13;;;-5.90;99.90;;;;;;5020762;28;20493;-70
2024/01/10 01:48:54;;;;;;;14.30;13.80;;;-5.90;99.90;;;;;;5028025;28;20471;-72
2024/01/10 01:51:23;;;;;;;14.77;14.27;;;-5.90;99.90;;;;;;5019931;28;20970;-72
2024/01/10 01:53:51;;;;;;;14.40;13.90;;;-5.90;99.90;;;;;;5014094;28;20465;-70
2024/01/10 01:56:18;;;;;;;15.00;14.50;;;-5.90;99.90;;;;;;5018999;28;20453;-73
2024/01/10 01:58:47;;;;;;;15.27;14.77;;;-5.90;99.90;;;;;;5014458;28;20805;-70
2024/01/10 02:01:15;;;;;;;14.67;14.17;;;-6.00;99.90;;;;;;5024517;28;20472;-71
2024/01/10 02:03:42;;;;;;;14.53;14.03;;;-5.90;99.90;;;;;;5022787;28;20956;-71
2024/01/10 02:06:09;;;;;;;14.57;14.07;;;-6.00;99.90;;;;;;5023209;28;20491;-72
2024/01/10 02:08:37;;;;;;;13.87;13.47;;;-6.00;99.90;;;;;;5028331;28;20457;-71
2024/01/10 02:11:04;;;;;;;14.63;14.13;;;-6.00;99.90;;;;;;5010887;28;20462;-72
2024/01/10 02:13:32;;;;;;;14.70;14.20;;;-5.90;99.90;;;;;;5020529;28;20956;-72
2024/01/10 02:16:01;;;;;;;15.20;14.70;;;-5.90;99.90;;;;;;5020924;28;20555;-71
2024/01/10 02:18:28;;;;;;;14.43;13.93;;;-5.90;99.90;;;;;;5018217;28;21086;-71
2024/01/10 02:20:55;;;;;;;14.87;14.37;;;-5.90;99.90;;;;;;5022719;28;20928;-72
2024/01/10 02:23:22;;;;;;;14.50;14.00;;;-5.90;99.90;;;;;;5029475;28;20996;-71
2024/01/10 02:25:50;;;;;;;14.40;13.90;;;-5.90;99.90;;;;;;5015918;28;20496;-70
2024/01/10 02:28:17;;;;;;;14.93;14.43;;;-6.00;99.90;;;;;;5034402;28;20473;-72
2024/01/10 02:30:44;;;;;;;14.50;14.00;;;-6.00;99.90;;;;;;5025330;28;20461;-71
2024/01/10 02:33:11;;;;;;;14.83;14.33;;;-6.00;99.90;;;;;;5030040;28;20454;-71
2024/01/10 02:35:38;;;;;;;14.67;14.17;;;-6.00;99.90;;;;;;5030315;28;20502;-72
2024/01/10 02:38:05;;;;;;;15.27;14.77;;;-6.00;99.90;;;;;;5017227;28;20698;-70
2024/01/10 02:40:32;;;;;;;15.20;14.70;;;-6.00;99.90;;;;;;5014130;28;20801;-72
2024/01/10 02:43:02;;;;;;;15.00;14.50;;;-6.10;99.90;;;;;;5025761;28;20457;-69
2024/01/10 02:45:29;;;;;;;15.03;14.53;;;-6.10;99.90;;;;;;5023976;28;20492;-68
2024/01/10 02:47:55;;;;;;;14.63;14.13;;;-6.10;99.90;;;;;;5026356;28;20469;-71
2024/01/10 02:50:23;;;;;;;14.70;14.20;;;-6.10;99.90;;;;;;5033816;28;20469;-70
2024/01/10 02:52:50;;;;;;;15.00;14.50;;;-6.10;99.90;;;;;;5043526;28;20460;-71
2024/01/10 02:55:18;;;;;;;14.60;14.10;;;-6.10;99.90;;;;;;5023069;28;20465;-72
2024/01/10 02:57:45;;;;;;;14.23;13.80;;;-6.10;99.90;;;;;;5034106;28;20447;-68
2024/01/10 03:00:15;;;;;;;14.30;13.80;;;-6.20;99.90;;;;;;5021677;28;20472;-71
2024/01/10 03:02:43;;;;;;;14.47;13.97;;;-6.10;99.90;;;;;;5042091;28;20996;-71
2024/01/10 03:05:09;;;;;;;14.90;14.40;;;-6.30;99.90;;;;;;5031714;28;20839;-70
2024/01/10 03:07:37;;;;;;;14.70;14.20;;;-6.40;99.90;;;;;;5031858;28;20473;-69
2024/01/10 03:10:04;;;;;;;14.93;14.43;;;-6.40;99.90;;;;;;5017476;28;20461;-69
2024/01/10 03:12:32;;;;;;;15.07;14.57;;;-6.40;99.90;;;;;;5020740;28;20500;-71
2024/01/10 03:14:59;;;;;;;15.37;14.87;;;-6.50;99.90;;;;;;5030169;28;20665;-71
2024/01/10 03:17:28;;;;;;;15.40;14.90;;;-6.40;99.90;;;;;;5023541;28;20459;-69
2024/01/10 03:19:55;;;;;;;14.67;14.17;;;-6.40;99.90;;;;;;5027092;28;20463;-69
2024/01/10 03:22:22;;;;;;;15.57;15.07;;;-6.30;99.90;;;;;;5025621;28;20567;-71
2024/01/10 03:24:49;;;;;;;14.97;14.47;;;-6.40;99.90;;;;;;5028927;28;20463;-69
2024/01/10 03:27:16;;;;;;;14.80;14.30;;;-6.40;99.90;;;;;;5037175;28;20477;-71
2024/01/10 03:29:43;;;;;;;14.63;14.13;;;-6.40;99.90;;;;;;5027926;28;20473;-69
2024/01/10 03:32:10;;;;;;;14.90;14.40;;;-6.40;99.90;;;;;;5036513;28;20674;-71
2024/01/10 03:34:39;;;;;;;14.87;14.37;;;-6.40;99.90;;;;;;5018128;28;20689;-70
2024/01/10 03:37:20;;;;;;;15.07;14.57;;;-6.40;99.90;;;;;;5022747;28;20581;-69
2024/01/10 03:39:47;;;;;;;14.73;14.23;;;-6.40;99.90;;;;;;5017734;28;20864;-69
2024/01/10 03:42:15;;;;;;;15.10;14.60;;;-6.40;99.90;;;;;;5038053;28;20457;-70
2024/01/10 03:44:43;;;;;;;14.67;14.17;;;-6.40;99.90;;;;;;5030422;28;20845;-72
2024/01/10 03:47:09;;;;;;;15.40;14.90;;;-6.50;99.90;;;;;;5028379;28;20499;-70
2024/01/10 03:49:38;;;;;;;14.60;14.10;;;-6.60;99.90;;;;;;5037216;28;20457;-71
2024/01/10 03:52:06;;;;;;;15.00;14.50;;;-6.60;99.90;;;;;;5021132;28;20877;-70
2024/01/10 03:54:33;;;;;;;15.10;14.60;;;-6.60;99.90;;;;;;5025597;28;20910;-71
2024/01/10 03:57:00;;;;;;;15.50;15.00;;;-6.70;99.90;;;;;;5044831;28;20461;-70
2024/01/10 03:59:28;;;;;;;15.47;14.97;;;-6.90;99.90;;;;;;5031024;28;21094;-71
2024/01/10 04:01:55;;;;;;;14.90;14.40;;;-6.90;99.90;;;;;;5027903;28;20679;-71
2024/01/10 04:04:22;;;;;;;15.03;14.53;;;-7.00;99.90;;;;;;5025003;28;20477;-71
2024/01/10 04:06:50;;;;;;;14.87;14.37;;;-7.00;99.90;;;;;;5029377;28;20871;-71
2024/01/10 04:09:17;;;;;;;15.30;14.80;;;-7.10;99.90;;;;;;5024777;28;20457;-70
2024/01/10 04:11:44;;;;;;;15.60;15.07;;;-7.10;99.90;;;;;;5031811;28;20484;-70
2024/01/10 04:14:10;;;;;;;15.73;15.13;;;-7.10;99.90;;;;;;5013841;28;20605;-71
2024/01/10 04:16:37;;;;;;;15.90;15.30;;;-7.20;99.90;;;;;;5025466;28;20479;-71
2024/01/10 04:19:04;;;;;;;15.73;15.13;;;-7.20;99.90;;;;;;5021455;28;20457;-72
2024/01/10 04:21:31;;;;;;;15.90;15.30;;;-7.30;99.90;;;;;;5017978;28;21023;-71
2024/01/10 04:23:59;;;;;;;15.20;14.70;;;-7.30;99.90;;;;;;5044896;28;20614;-71
2024/01/10 04:26:26;;;;;;;15.30;14.80;;;-7.30;99.90;;;;;;5022920;28;20504;-69
2024/01/10 04:28:54;;;;;;;15.43;14.93;;;-7.40;99.90;;;;;;5024461;28;20462;-69
2024/01/10 04:31:21;;;;;;;15.23;14.73;;;-7.40;99.90;;;;;;5016287;28;20458;-70
2024/01/10 04:33:48;;;;;;;15.47;14.97;;;-7.40;99.90;;;;;;5024074;28;20468;-71
2024/01/10 04:36:14;;;;;;;15.03;14.53;;;-7.30;99.90;;;;;;5035822;28;20461;-71
2024/01/10 04:38:41;;;;;;;15.23;14.73;;;-7.30;99.90;;;;;;5045079;28;20500;-71
2024/01/10 04:41:10;;;;;;;14.50;14.00;;;-7.30;99.90;;;;;;5024490;28;20468;-70
2024/01/10 04:43:37;;;;;;;14.80;14.30;;;-7.40;99.90;;;;;;5008002;28;20525;-70
2024/01/10 04:46:04;;;;;;;15.13;14.63;;;-7.60;99.90;;;;;;5030497;28;20488;-71
2024/01/10 04:48:31;;;;;;;15.10;14.60;;;-7.50;99.90;;;;;;5036541;28;20522;-70
2024/01/10 04:50:58;;;;;;;15.20;14.70;;;-7.60;99.90;;;;;;5034278;28;20468;-71
2024/01/10 04:53:25;;;;;;;15.30;14.80;;;-7.60;99.90;;;;;;5019575;28;20816;-71
2024/01/10 04:55:52;;;;;;;15.40;14.90;;;-7.60;99.90;;;;;;5030881;28;20462;-70
2024/01/10 04:58:20;;;;;;;15.47;14.97;;;-7.40;99.90;;;;;;5035796;28;20817;-69
2024/01/10 05:00:47;;;;;;;15.70;15.13;;;-7.30;99.90;;;;;;5021730;28;20460;-72
2024/01/10 05:03:15;;;;;;;16.13;15.53;;;-7.20;99.90;;;;;;5039106;28;20456;-71
2024/01/10 05:05:42;;;;;;;15.30;14.80;;;-7.00;99.90;;;;;;5025815;28;20903;-71
2024/01/10 05:08:09;;;;;;;15.43;14.93;;;-6.90;99.90;;;;;;5023844;28;20480;-71
2024/01/10 05:10:36;;;;;;;15.50;15.00;;;-6.80;99.90;;;;;;5028729;28;20952;-71
2024/01/10 05:13:02;;;;;;;15.17;14.67;;;-6.70;99.90;;;;;;5013362;28;20505;-71
2024/01/10 05:15:30;;;;;;;15.70;15.17;;;-6.60;99.90;;;;;;5024210;28;20464;-70
2024/01/10 05:17:57;;;;;;;16.20;15.60;;;-6.60;99.90;;;;;;5017839;28;20473;-70
2024/01/10 05:20:24;;;;;;;15.17;14.63;;;-6.60;99.90;;;;;;5036745;28;20829;-71
2024/01/10 05:22:51;;;;;;;15.77;15.17;;;-6.60;99.90;;;;;;5025785;28;20461;-69
2024/01/10 05:25:18;;;;;;;15.70;15.10;;;-6.60;99.90;;;;;;5025238;28;20992;-69
2024/01/10 05:27:45;;;;;;;15.97;15.37;;;-6.50;99.90;;;;;;5018451;28;20584;-70
2024/01/10 05:30:14;;;;;;;15.97;15.37;;;-6.50;99.90;;;;;;5021459;28;20486;-71
2024/01/10 05:32:45;;;;;;;15.03;14.53;;;-6.50;99.90;;;;;;5031886;28;20550;-71
2024/01/10 05:35:11;;;;;;;15.60;15.00;;;-6.50;99.90;;;;;;5034531;28;20841;-71
2024/01/10 05:37:39;;;;;;;15.73;15.13;;;-6.50;99.90;;;;;;5023306;28;20470;-71
2024/01/10 05:40:07;;;;;;;15.97;15.37;;;-6.50;99.90;;;;;;5022574;28;21067;-70
2024/01/10 05:42:35;;;;;;;15.83;15.23;;;-6.50;99.90;;;;;;5036224;28;20488;-69
2024/01/10 05:45:02;;;;;;;16.00;15.40;;;-6.50;99.90;;;;;;5024710;28;20488;-71
2024/01/10 05:47:29;;;;;;;15.97;15.37;;;-6.50;99.90;;;;;;5014778;28;20615;-70
2024/01/10 05:49:58;;;;;;;15.73;15.13;;;-6.40;99.90;;;;;;5018414;28;20469;-70
2024/01/10 05:52:24;;;;;;;16.17;15.57;;;-6.40;99.90;;;;;;5020645;28;20469;-71
2024/01/10 05:54:53;;;;;;;15.93;15.33;;;-6.40;99.90;;;;;;5018128;28;20469;-69
2024/01/10 05:57:21;;;;;;;15.73;15.13;;;-6.50;99.90;;;;;;5016862;28;20466;-69
2024/01/10 05:59:47;;;;;;;16.03;15.43;;;-6.50;99.90;;;;;;5012211;28;20472;-69
2024/01/10 06:02:16;;;;;;;16.07;15.47;;;-6.60;99.90;;;;;;5020433;28;20549;-70
2024/01/10 06:04:43;;;;;;;15.70;15.10;;;-6.70;99.90;;;;;;5011457;28;21072;-72
2024/01/10 06:07:11;;;;;;;15.27;14.70;;;-6.80;99.90;;;;;;5030738;28;20489;-72
2024/01/10 06:09:39;;;;;;;15.60;15.00;;;-6.90;99.90;;;;;;5017401;28;20481;-71
2024/01/10 06:12:07;;;;;;;15.53;14.93;;;-7.00;99.90;;;;;;5019674;28;20527;-71
2024/01/10 06:14:34;;;;;;;15.23;14.73;;;-7.00;99.90;;;;;;5021489;28;21073;-72
2024/01/10 06:17:01;;;;;;;15.17;14.63;;;-7.10;99.90;;;;;;5017566;28;20501;-71
2024/01/10 06:19:28;;;;;;;15.70;15.10;;;-7.20;99.90;;;;;;5010712;28;20458;-72
2024/01/10 06:21:55;;;;;;;15.07;14.57;;;-7.20;99.90;;;;;;5013555;28;20483;-72
2024/01/10 06:24:23;;;;;;;15.60;15.00;;;-7.10;99.90;;;;;;5021450;28;21128;-70
2024/01/10 06:26:51;;;;;;;15.67;15.07;;;-7.10;99.90;;;;;;5027225;28;20496;-70
2024/01/10 06:29:18;;;;;;;15.70;15.10;;;-7.00;99.90;;;;;;5039021;28;20463;-69
2024/01/10 06:31:46;;;;;;;16.37;15.77;;;-7.00;99.90;;;;;;5021968;28;20968;-71
2024/01/10 06:34:14;;;;;;;15.90;15.30;;;-6.80;99.90;;;;;;5026160;28;20569;-71
2024/01/10 06:36:41;;;;;;;15.73;15.13;;;-6.80;99.90;;;;;;5020120;28;20470;-70
2024/01/10 06:39:12;;;;;;;16.00;15.40;;;-6.90;99.90;;;;;;5031437;28;20471;-70
2024/01/10 06:41:42;;;;;;;15.50;14.90;;;-6.90;99.90;;;;;;5031514;28;20466;-71
2024/01/10 06:44:09;;;;;;;15.63;15.03;;;-6.80;99.90;;;;;;5024983;28;20519;-71
2024/01/10 06:46:37;;;;;;;15.70;15.10;;;-6.80;99.90;;;;;;5034957;28;20477;-71
2024/01/10 06:49:03;;;;;;;15.90;15.30;;;-6.80;99.90;;;;;;5017590;28;20472;-70
2024/01/10 06:51:30;;;;;;;15.73;15.13;;;-6.70;99.90;;;;;;5030143;28;20463;-71
2024/01/10 06:54:03;;;;;;;15.73;15.13;;;-6.70;99.90;;;;;;5018564;28;20469;-70
2024/01/10 06:56:30;;;;;;;16.47;15.87;;;-6.70;99.90;;;;;;5031568;28;20960;-69
2024/01/10 06:58:59;;;;;;;16.50;15.90;;;-6.60;99.90;;;;;;5041496;28;20453;-71
2024/01/10 07:01:26;;;;;;;16.03;15.43;;;-6.60;99.90;;;;;;5024754;28;20465;-70
2024/01/10 07:03:54;;;;;;;15.90;15.30;;;-6.70;99.90;;;;;;5027581;28;20457;-69
2024/01/10 07:06:21;;;;;;;16.30;15.70;;;-6.70;99.90;;;;;;5031358;28;20557;-69
2024/01/10 07:08:50;;;;;;;16.50;15.90;;;-6.70;99.90;;;;;;5028641;28;20964;-71
2024/01/10 07:11:17;;;;;;;16.00;15.40;;;-6.70;99.90;;;;;;5012602;28;20461;-71
2024/01/10 07:13:45;;;;;;;16.13;15.53;;;-6.70;99.90;;;;;;5013208;28;20499;-70
2024/01/10 07:16:14;;;;;;;16.00;15.40;;;-6.70;99.90;;;;;;5008933;28;20593;-70
2024/01/10 07:18:41;;;;;;;16.20;15.60;;;-6.70;99.90;;;;;;5020109;28;20988;-71
2024/01/10 07:21:10;;;;;;;15.87;15.27;;;-6.70;99.90;;;;;;5015262;28;20476;-71
2024/01/10 07:23:38;;;;;;;16.17;15.57;;;-6.70;99.90;;;;;;5017309;28;20461;-71
2024/01/10 07:26:05;;;;;;;16.40;15.80;;;-6.70;99.90;;;;;;5017203;28;20474;-71
2024/01/10 07:28:32;;;;;;;16.17;15.57;;;-6.70;99.90;;;;;;5011144;28;20607;-70
2024/01/10 07:30:59;;;;;;;16.13;15.53;;;-6.60;99.90;;;;;;5013625;28;20502;-71
2024/01/10 07:33:30;;;;;;;16.50;15.90;;;-6.60;99.90;;;;;;5016362;28;20469;-70
2024/01/10 07:35:57;;;;;;;16.10;15.50;;;-6.60;99.90;;;;;;5016511;28;20512;-71
2024/01/10 07:38:24;;;;;;;16.73;16.03;;;-6.60;99.90;;;;;;5016177;28;20994;-71
2024/01/10 07:40:50;;;;;;;16.57;15.97;;;-6.60;99.90;;;;;;5012833;28;20883;-70
2024/01/10 07:43:17;;;;;;;16.33;15.73;;;-6.60;99.90;;;;;;5010989;28;20511;-71
2024/01/10 07:45:44;;;;;;;16.33;15.73;;;-6.60;99.90;;;;;;5012553;28;20465;-71
2024/01/10 07:48:11;;;;;;;15.73;15.13;;;-6.50;99.90;;;;;;5015907;28;21243;-71
2024/01/10 07:50:39;;;;;;;16.20;15.60;;;-6.50;99.90;;;;;;5011143;28;20470;-69
2024/01/10 07:53:07;;;;;;;16.10;15.50;;;-6.50;99.90;;;;;;5016754;28;20977;-70
2024/01/10 07:55:34;;;;;;;15.40;14.80;;;-6.50;99.90;;;;;;5010231;28;20588;-71
2024/01/10 07:58:01;;;;;;;16.37;15.77;;;-6.50;99.90;;;;;;5017908;28;20459;-71
2024/01/10 08:00:29;;;;;;;16.03;15.43;;;-6.50;99.90;;;;;;5018468;28;20569;-71
2024/01/10 08:02:58;;;;;;;15.80;15.20;;;-6.50;99.90;;;;;;5010889;28;20502;-71
2024/01/10 08:05:24;;;;;;;16.10;15.50;;;-6.50;99.90;;;;;;5016595;28;20462;-71
2024/01/10 08:07:53;;;;;;;16.63;16.03;;;-6.60;99.90;;;;;;5017600;28;20543;-69
2024/01/10 08:10:20;;;;;;;16.80;16.20;;;-6.60;99.90;;;;;;5015850;28;20458;-69
2024/01/10 08:12:46;;;;;;;16.20;15.60;;;-6.50;99.90;;;;;;5018100;28;20466;-70
2024/01/10 08:15:14;;;;;;;16.00;15.40;;;-6.50;99.90;;;;;;5013536;28;20457;-70
2024/01/10 08:17:40;;;;;;;15.93;15.33;;;-6.50;99.90;;;;;;5009736;28;20459;-71
2024/01/10 08:20:10;;;;;;;15.70;15.10;;;-6.50;99.90;;;;;;5017930;28;21256;-71
2024/01/10 08:22:37;;;;;;;17.10;16.40;;;-6.40;99.90;;;;;;5017274;28;20473;-72
2024/01/10 08:25:06;;;;;;;16.47;15.87;;;-6.40;99.90;;;;;;5008382;28;20532;-72
2024/01/10 08:27:34;;;;;;;15.80;15.20;;;-6.40;99.90;;;;;;5013706;28;20502;-71
2024/01/10 08:30:04;;;;;;;15.53;14.97;;;-6.40;99.90;;;;;;5013368;28;20450;-70
2024/01/10 08:32:31;;;;;;;16.00;15.40;;;-6.40;99.90;;;;;;5009726;28;20469;-71
2024/01/10 08:34:58;;;;;;;15.67;15.07;;;-6.40;99.90;;;;;;5011315;28;20469;-71
2024/01/10 08:37:24;;;;;;;15.67;15.07;;;-6.40;99.90;;;;;;5011448;28;20473;-70
2024/01/10 08:39:51;;;;;;;15.83;15.23;;;-6.40;99.90;;;;;;5014443;28;20461;-71
2024/01/10 08:42:19;;;;;;;15.70;15.10;;;-6.50;99.90;;;;;;5016505;28;20461;-69
2024/01/10 08:44:46;;;;;;;16.30;15.70;;;-6.40;99.90;;;;;;5017171;28;20480;-71
2024/01/10 08:47:13;;;;;;;16.30;15.70;;;-6.40;99.90;;;;;;5014366;28;20481;-71
2024/01/10 08:49:40;;;;;;;15.87;15.27;;;-6.40;99.90;;;;;;5016851;28;21021;-71
2024/01/10 08:52:08;;;;;;;15.57;14.97;;;-6.30;99.90;;;;;;5010966;28;20466;-72
2024/01/10 08:54:34;;;;;;;16.03;15.43;;;-6.30;99.90;;;;;;5016400;28;21204;-70
2024/01/10 08:57:03;;;;;;;15.97;15.37;;;-6.20;99.90;;;;;;5018245;28;20461;-71
2024/01/10 08:59:30;;;;;;;15.00;14.50;;;-6.10;99.90;;;;;;5018276;28;20548;-70
2024/01/10 09:01:57;;;;;;;15.40;14.80;;;-6.00;99.90;;;;;;5013410;28;20473;-70
2024/01/10 09:04:25;;;;;;;15.83;15.23;;;-5.90;99.90;;;;;;5016564;28;20835;-72
2024/01/10 09:06:52;;;;;;;16.37;15.77;;;-5.90;99.90;;;;;;5018188;28;20497;-70
2024/01/10 09:09:20;;;;;;;16.10;15.50;;;-5.90;99.90;;;;;;5011559;28;20499;-72
2024/01/10 09:11:47;;;;;;;16.00;15.40;;;-5.70;99.90;;;;;;5011241;28;20465;-72
2024/01/10 09:14:14;;;;;;;16.67;16.00;;;-5.70;99.90;;;;;;5015684;28;21000;-70
2024/01/10 09:16:43;;;;;;;16.27;15.67;;;-5.70;99.90;;;;;;5014756;28;20576;-71
2024/01/10 09:19:09;;;;;;;16.57;15.97;;;-5.70;99.90;;;;;;5017482;28;20465;-71
2024/01/10 09:21:36;;;;;;;16.13;15.53;;;-5.60;99.90;;;;;;5017002;28;20558;-71
2024/01/10 09:24:05;;;;;;;16.57;15.87;;;-5.50;99.90;;;;;;5014442;28;20497;-72
2024/01/10 09:26:32;;;;;;;16.63;15.93;;;-5.50;99.90;;;;;;5012497;28;21353;-70
2024/01/10 09:28:59;;;;;;;16.73;16.03;;;-5.50;99.90;;;;;;5012318;28;20493;-70
2024/01/10 09:31:26;;;;;;;16.33;15.73;;;-5.50;99.90;;;;;;5015990;28;20552;-71
2024/01/10 09:33:54;;;;;;;17.07;16.37;;;-5.40;99.90;;;;;;5014945;28;20464;-70
2024/01/10 09:36:20;;;;;;;17.27;16.57;;;-5.40;99.90;;;;;;5014835;28;20563;-71
2024/01/10 09:38:47;;;;;;;16.50;15.80;;;-5.30;99.90;;;;;;5016241;28;20476;-71
2024/01/10 09:41:15;;;;;;;16.80;16.10;;;-5.30;99.90;;;;;;5015216;28;20480;-71
2024/01/10 09:43:42;;;;;;;16.57;15.87;;;-5.20;99.90;;;;;;5009674;28;20487;-72
2024/01/10 09:46:10;;;;;;;16.70;16.00;;;-5.30;99.90;;;;;;5013126;28;20599;-72
2024/01/10 09:48:36;;;;;;;16.23;15.63;;;-5.20;99.90;;;;;;5016822;28;21231;-72
2024/01/10 09:51:05;;;;;;;16.07;15.47;;;-5.20;99.90;;;;;;5018181;28;20765;-71
2024/01/10 09:53:36;;;;;;;17.47;16.77;;;-5.20;99.90;;;;;;5012816;28;20836;-72
2024/01/10 09:56:05;;;;;;;16.70;16.00;;;-5.00;99.90;;;;;;5016775;28;20837;-71
2024/01/10 09:58:38;;;;;;;16.57;15.87;;;-5.00;99.90;;;;;;5011085;28;20464;-70
2024/01/10 10:01:05;;;;;;;16.83;16.13;;;-4.90;99.90;;;;;;5010970;28;20965;-72
2024/01/10 10:03:36;;;;;;;16.43;15.73;;;-4.70;99.90;;;;;;5012531;28;20483;-71
2024/01/10 10:06:05;;;;;;;17.57;16.87;;;-4.70;99.90;;;;;;5013270;28;21332;-72
2024/01/10 10:08:31;;;;;;;17.50;16.80;;;-4.60;99.90;;;;;;5009309;28;20732;-70
2024/01/10 10:10:59;;;;;;;16.63;15.93;;;-4.50;99.90;;;;;;5012429;28;20505;-72
2024/01/10 10:13:27;;;;;;;17.80;17.00;;;-4.40;99.90;;;;;;5014624;28;20499;-72
2024/01/10 10:16:01;;;;;;;17.40;16.70;;;-4.40;99.90;;;;;;5012475;28;20952;-72
2024/01/10 10:18:28;;;;;;;17.17;16.47;;;-4.30;99.90;;;;;;5016761;28;21004;-72
2024/01/10 10:21:12;;;;;;;17.33;16.63;;;-4.20;99.90;;;;;;5017801;28;20983;-70
2024/01/10 10:23:40;;;;;;;17.30;16.60;;;-4.10;99.90;;;;;;5016725;28;20471;-70
2024/01/10 10:26:13;;;;;;;17.57;16.87;;;-4.00;99.90;;;;;;5011234;28;20473;-72
2024/01/10 10:28:42;;;;;;;18.40;17.60;;;-3.90;99.90;;;;;;5017900;28;20591;-69
2024/01/10 10:31:08;;;;;;;18.43;17.63;;;-3.80;99.90;;;;;;5018931;28;20549;-70
2024/01/10 10:33:35;;;;;;;18.20;17.40;;;-3.70;99.90;;;;;;5013245;28;20512;-71
2024/01/10 10:36:03;;;;;;;18.30;17.50;;;-3.70;99.90;;;;;;5022126;28;20461;-72
2024/01/10 10:38:31;;;;;;;17.17;16.47;;;-3.60;99.90;;;;;;5015958;28;20484;-71
2024/01/10 10:40:59;;;;;;;17.13;16.43;;;-3.50;99.90;;;;;;5018973;28;20473;-70
2024/01/10 10:43:27;;;;;;;18.03;17.23;;;-3.40;99.90;;;;;;5012995;28;20485;-70
2024/01/10 10:45:55;;;;;;;18.03;17.23;;;-3.30;99.90;;;;;;5014582;28;20474;-72
2024/01/10 10:48:22;;;;;;;18.07;17.27;;;-3.20;99.90;;;;;;5020204;28;20499;-72
2024/01/10 10:51:03;;;;;;;17.93;17.13;;;-3.10;99.90;;;;;;5019911;28;20475;-71
2024/01/10 10:53:32;;;;;;;18.20;17.40;;;-3.00;99.90;;;;;;5018696;28;20516;-73
2024/01/10 10:56:01;;;;;;;17.20;16.50;;;-3.00;99.90;;;;;;5016880;28;20467;-70
2024/01/10 10:58:28;;;;;;;17.03;16.33;;;-2.90;99.90;;;;;;5014546;28;20462;-72
2024/01/10 11:00:56;;;;;;;17.23;16.53;;;-2.80;99.90;;;;;;5019990;28;20537;-71
2024/01/10 11:03:24;;;;;;;17.20;16.50;;;-2.70;99.90;;;;;;5025382;28;20548;-70
2024/01/10 11:05:52;;;;;;;17.83;17.13;;;-2.60;99.90;;;;;;5031582;28;20476;-71
2024/01/10 11:08:22;;;;;;;17.20;16.50;;;-2.50;99.90;;;;;;5030534;28;20786;-70
2024/01/10 11:10:52;;;;;;;17.27;16.57;;;-2.40;99.90;;;;;;5027006;28;20469;-73
2024/01/10 11:13:42;;;;;;;17.70;17.00;;;-2.40;99.90;;;;;;5027952;28;20487;-73
2024/01/10 11:16:45;;;;;;;17.20;16.50;;;-2.30;99.90;;;;;;5030414;28;20588;-72
2024/01/10 11:19:33;;;;;;;17.07;16.37;;;-2.10;99.90;;;;;;5032180;28;20871;-70
2024/01/10 11:22:14;;;;;;;17.10;16.40;;;-1.70;99.90;;;;;;5024449;28;20477;-72
2024/01/10 11:24:41;;;;;;;17.30;16.60;;;-1.30;99.90;;;;;;5028739;28;20469;-70
2024/01/10 11:27:12;;;;;;;16.67;15.97;;;-1.30;99.90;;;;;;5023962;28;20473;-73
2024/01/10 11:29:40;;;;;;;16.70;16.00;;;-1.40;99.90;;;;;;5030920;28;20492;-73
2024/01/10 11:32:09;;;;;;;16.63;15.93;;;-1.50;99.90;;;;;;5024996;28;20562;-69
2024/01/10 11:34:36;;;;;;;16.43;15.80;;;-1.60;99.90;;;;;;5032486;28;20470;-71
2024/01/10 11:37:13;;;;;;;16.50;15.80;;;-1.60;99.90;;;;;;5031298;28;20470;-71
2024/01/10 11:39:43;;;;;;;16.77;16.07;;;-1.60;99.90;;;;;;5023754;28;20461;-71
2024/01/10 11:42:11;;;;;;;17.00;16.30;;;-1.50;99.90;;;;;;5033562;28;20545;-70
2024/01/10 11:44:49;;;;;;;17.20;16.50;;;-1.50;99.90;;;;;;5032610;28;20481;-71
2024/01/10 11:47:18;;;;;;;16.90;16.20;;;-1.40;99.90;;;;;;5026002;28;20976;-71
2024/01/10 11:49:55;;;;;;;17.33;16.63;;;-1.20;99.90;;;;;;5029504;28;20883;-70
2024/01/10 11:52:23;;;;;;;17.50;16.80;;;-0.70;99.90;;;;;;5030184;28;20491;-70
2024/01/10 11:54:50;;;;;;;17.87;17.07;;;-0.10;99.90;;;;;;5030535;28;20465;-73
2024/01/10 11:57:22;;;;;;;17.37;16.67;;;0.50;99.90;;;;;;5024843;28;20480;-71
2024/01/10 11:59:53;;;;;;;17.27;16.57;;;0.90;99.90;;;;;;5030511;28;20465;-72
2024/01/10 12:02:21;;;;;;;17.67;16.87;;;1.30;99.90;;;;;;5016107;28;20459;-70
2024/01/10 12:04:49;;;;;;;17.70;16.90;;;1.50;99.90;;;;;;5018521;28;20473;-70
2024/01/10 12:07:17;;;;;;;17.47;16.77;;;1.70;99.90;;;;;;5015500;28;20548;-74
2024/01/10 12:09:44;;;;;;;17.30;16.60;;;1.90;99.90;;;;;;5017303;28;20498;-73
2024/01/10 12:12:11;;;;;;;17.73;16.93;;;2.00;99.90;;;;;;5018885;28;20823;-72
2024/01/10 12:14:40;;;;;;;17.40;16.70;;;2.30;99.90;;;;;;5010982;28;20486;-76
2024/01/10 12:17:08;;;;;;;17.40;16.70;;;2.20;98.70;;;;;;5017754;28;20470;-70
2024/01/10 12:19:35;;;;;;;17.20;16.50;;;1.90;99.00;;;;;;5017611;28;20559;-72
2024/01/10 12:22:03;;;;;;;16.73;16.03;;;1.80;99.30;;;;;;5020242;28;20513;-75
2024/01/10 12:24:31;;;;;;;17.17;16.47;;;1.50;99.90;;;;;;5016831;28;21938;-75
2024/01/10 12:26:58;;;;;;;17.07;16.37;;;1.50;99.90;;;;;;5012241;28;20548;-73
2024/01/10 12:29:26;;;;;;;17.60;16.90;;;1.90;99.90;;;;;;5017977;28;20519;-72
2024/01/10 12:31:54;;;;;;;16.77;16.07;;;2.30;99.90;;;;;;5016583;28;20472;-73